createdAt,value
2019-04-10T00:01:09.617Z,5.37
2019-04-10T00:03:41.780Z,5.34
2019-04-10T00:06:08.811Z,5.17
2019-04-10T00:08:37.002Z,5.20
2019-04-10T00:11:05.138Z,4.82
2019-04-10T00:13:34.183Z,4.69
2019-04-10T00:16:03.560Z,4.69
2019-04-10T00:18:31.896Z,4.80
2019-04-10T00:21:00.818Z,4.90
2019-04-10T00:23:29.108Z,4.86
2019-04-10T00:25:57.347Z,4.87
2019-04-10T00:28:25.562Z,4.86
2019-04-10T00:30:53.740Z,4.66
2019-04-10T00:33:22.888Z,4.66
2019-04-10T00:35:52.072Z,4.90
2019-04-10T00:38:20.174Z,4.93
2019-04-10T00:40:48.329Z,4.68
2019-04-10T00:43:17.041Z,4.83
2019-04-10T00:45:45.974Z,4.28
2019-04-10T00:48:15.278Z,4.49
2019-04-10T00:50:44.611Z,4.00
2019-04-10T00:53:12.844Z,4.24
2019-04-10T00:55:41.011Z,4.60
2019-04-10T00:58:09.971Z,4.42
2019-04-10T01:00:39.176Z,4.35
2019-04-10T01:03:07.576Z,4.36
2019-04-10T01:05:35.707Z,3.74
2019-04-10T01:08:04.484Z,3.58
2019-04-10T01:10:34.582Z,3.39
2019-04-10T01:13:04.824Z,3.50
2019-04-10T01:15:34.365Z,3.61
2019-04-10T01:18:02.623Z,3.43
2019-04-10T01:20:31.319Z,3.70
2019-04-10T01:22:59.638Z,3.82
2019-04-10T01:25:27.786Z,3.23
2019-04-10T01:27:56.293Z,2.65
2019-04-10T01:30:24.736Z,2.75
2019-04-10T01:32:52.917Z,2.96
2019-04-10T01:35:21.046Z,2.66
2019-04-10T01:37:54.776Z,2.82
2019-04-10T01:40:20.228Z,2.45
2019-04-10T01:43:02.525Z,3.40
2019-04-10T01:45:19.522Z,2.93
2019-04-10T01:47:47.710Z,2.76
2019-04-10T01:50:15.897Z,2.52
2019-04-10T01:52:44.924Z,2.56
2019-04-10T01:55:21.155Z,2.41
2019-04-10T01:57:44.144Z,3.09
2019-04-10T02:00:16.325Z,2.72
2019-04-10T02:02:49.971Z,2.72
2019-04-10T02:05:18.712Z,2.06
2019-04-10T02:07:59.619Z,2.60
2019-04-10T02:10:17.102Z,3.23
2019-04-10T02:12:47.244Z,2.64
2019-04-10T02:15:15.931Z,2.84
2019-04-10T02:17:44.516Z,3.04
2019-04-10T02:20:13.031Z,2.84
2019-04-10T02:22:41.158Z,2.09
2019-04-10T02:25:11.593Z,1.61
2019-04-10T02:27:40.567Z,3.03
2019-04-10T02:30:12.050Z,2.96
2019-04-10T02:32:41.506Z,3.01
2019-04-10T02:35:15.222Z,2.99
2019-04-10T02:37:41.715Z,2.38
2019-04-10T02:40:12.829Z,2.72
2019-04-10T02:42:41.563Z,2.51
2019-04-10T02:45:12.563Z,2.51
2019-04-10T02:47:41.250Z,2.05
2019-04-10T02:50:10.475Z,1.98
2019-04-10T02:52:41.166Z,1.73
2019-04-10T02:55:11.628Z,1.69
2019-04-10T02:57:39.279Z,1.82
2019-04-10T03:00:13.909Z,2.00
2019-04-10T03:02:42.022Z,2.31
2019-04-10T03:05:10.909Z,2.43
2019-04-10T03:07:40.379Z,2.39
2019-04-10T03:10:20.380Z,2.24
2019-04-10T03:12:40.951Z,2.28
2019-04-10T03:15:10.510Z,2.43
2019-04-10T03:17:40.063Z,2.38
2019-04-10T03:20:10.046Z,2.06
2019-04-10T03:22:38.238Z,1.76
2019-04-10T03:25:06.782Z,1.97
2019-04-10T03:27:34.897Z,2.19
2019-04-10T03:30:03.135Z,1.58
2019-04-10T03:32:55.922Z,1.92
2019-04-10T03:35:26.971Z,1.95
2019-04-10T03:37:55.642Z,2.06
2019-04-10T03:40:23.778Z,1.95
2019-04-10T03:42:52.956Z,2.00
2019-04-10T03:45:22.420Z,1.87
2019-04-10T03:47:51.528Z,1.87
2019-04-10T03:50:19.761Z,1.78
2019-04-10T03:52:47.948Z,1.86
2019-04-10T03:55:16.756Z,1.87
2019-04-10T03:57:46.921Z,1.57
2019-04-10T04:00:16.188Z,1.51
2019-04-10T04:02:46.304Z,1.73
2019-04-10T04:05:14.762Z,1.66
2019-04-10T04:07:43.200Z,1.60
2019-04-10T04:10:35.048Z,1.55
2019-04-10T04:13:06.111Z,1.46
2019-04-10T04:15:33.727Z,1.23
2019-04-10T04:18:02.497Z,1.45
2019-04-10T04:20:30.846Z,0.70
2019-04-10T04:22:59.231Z,1.02
2019-04-10T04:25:27.404Z,1.01
2019-04-10T04:27:55.574Z,0.81
2019-04-10T04:30:24.652Z,0.20
2019-04-10T04:32:53.912Z,0.11
2019-04-10T04:35:22.389Z,-0.19
2019-04-10T04:37:50.668Z,0.58
2019-04-10T04:40:19.703Z,0.96
2019-04-10T04:42:48.054Z,1.01
2019-04-10T04:45:17.340Z,0.96
2019-04-10T04:47:45.633Z,0.99
2019-04-10T04:50:13.874Z,1.04
2019-04-10T04:52:42.081Z,1.07
2019-04-10T04:55:10.199Z,0.96
2019-04-10T04:57:39.659Z,0.83
2019-04-10T05:00:09.438Z,1.00
2019-04-10T05:02:39.189Z,0.97
2019-04-10T05:05:08.746Z,0.84
2019-04-10T05:07:39.616Z,0.99
2019-04-10T05:10:09.094Z,0.96
2019-04-10T05:12:38.096Z,0.93
2019-04-10T05:15:06.728Z,0.90
2019-04-10T05:17:35.202Z,0.77
2019-04-10T05:20:05.039Z,0.84
2019-04-10T05:22:34.011Z,-0.77
2019-04-10T05:25:03.017Z,0.47
2019-04-10T05:27:33.058Z,0.76
2019-04-10T05:30:02.333Z,1.22
2019-04-10T05:32:31.309Z,1.18
2019-04-10T05:34:59.475Z,1.10
2019-04-10T05:37:27.633Z,1.24
2019-04-10T05:39:55.986Z,1.56
2019-04-10T05:42:24.805Z,1.97
2019-04-10T05:44:52.977Z,0.60
2019-04-10T05:47:21.454Z,3.10
2019-04-10T05:49:49.679Z,3.70
2019-04-10T05:52:18.215Z,3.92
2019-04-10T05:54:47.316Z,3.69
2019-04-10T05:57:15.881Z,3.56
2019-04-10T05:59:44.139Z,3.71
2019-04-10T06:02:12.319Z,3.44
2019-04-10T06:04:41.212Z,3.43
2019-04-10T06:07:10.642Z,3.59
2019-04-10T06:09:38.875Z,3.89
2019-04-10T06:12:07.247Z,4.03
2019-04-10T06:14:35.491Z,4.11
2019-04-10T06:17:04.271Z,4.33
2019-04-10T06:19:32.818Z,4.19
2019-04-10T06:22:01.132Z,4.39
2019-04-10T06:24:29.965Z,4.14
2019-04-10T06:26:58.249Z,3.84
2019-04-10T06:29:26.755Z,4.39
2019-04-10T06:31:54.996Z,4.74
2019-04-10T06:34:23.160Z,4.76
2019-04-10T06:36:51.602Z,4.81
2019-04-10T06:39:20.503Z,4.94
2019-04-10T06:41:48.878Z,4.93
2019-04-10T06:44:17.577Z,5.09
2019-04-10T06:46:47.002Z,5.10
2019-04-10T06:49:55.449Z,5.06
2019-04-10T06:52:24.995Z,5.16
2019-04-10T06:54:54.103Z,5.27
2019-04-10T06:57:22.970Z,5.34
2019-04-10T06:59:51.104Z,5.30
2019-04-10T07:02:25.622Z,5.33
2019-04-10T07:04:54.443Z,5.35
2019-04-10T07:07:21.591Z,5.31
2019-04-10T07:09:49.583Z,5.38
2019-04-10T07:12:18.602Z,5.27
2019-04-10T07:14:50.678Z,5.28
2019-04-10T07:17:18.034Z,5.41
2019-04-10T07:19:46.214Z,5.50
2019-04-10T07:22:16.232Z,5.55
2019-04-10T07:24:44.234Z,5.53
2019-04-10T07:27:12.510Z,5.46
2019-04-10T07:29:40.652Z,5.69
2019-04-10T07:32:11.684Z,5.88
2019-04-10T07:34:38.742Z,6.08
2019-04-10T07:37:09.449Z,5.96
2019-04-10T07:39:37.482Z,6.12
2019-04-10T07:42:06.756Z,6.45
2019-04-10T07:44:35.040Z,6.80
2019-04-10T07:47:03.318Z,6.94
2019-04-10T07:49:32.872Z,7.14
2019-04-10T07:52:02.446Z,7.36
2019-04-10T07:54:31.258Z,7.62
2019-04-10T07:56:59.909Z,7.85
2019-04-10T07:59:29.236Z,8.05
2019-04-10T08:01:58.239Z,7.69
2019-04-10T08:04:26.868Z,8.30
2019-04-10T08:06:55.553Z,8.45
2019-04-10T08:09:24.308Z,8.60
2019-04-10T08:11:52.652Z,8.97
2019-04-10T08:14:21.712Z,9.17
2019-04-10T08:16:50.217Z,8.96
2019-04-10T08:19:18.713Z,9.59
2019-04-10T08:21:46.849Z,10.01
2019-04-10T08:24:15.767Z,10.05
2019-04-10T08:26:45.055Z,10.24
2019-04-10T08:29:14.236Z,10.39
2019-04-10T08:31:42.400Z,10.88
2019-04-10T08:34:10.985Z,9.65
2019-04-10T08:36:39.521Z,9.63
2019-04-10T08:39:08.588Z,10.92
2019-04-10T08:41:37.278Z,10.22
2019-04-10T08:44:06.479Z,11.54
2019-04-10T08:46:35.769Z,11.54
2019-04-10T08:49:04.137Z,10.77
2019-04-10T08:51:33.186Z,12.05
2019-04-10T08:54:02.634Z,12.44
2019-04-10T08:56:30.923Z,12.71
2019-04-10T08:58:59.336Z,13.01
2019-04-10T09:01:27.503Z,13.04
2019-04-10T09:03:55.633Z,12.85
2019-04-10T09:06:23.776Z,11.72
2019-04-10T09:08:53.564Z,11.39
2019-04-10T09:11:26.506Z,13.55
2019-04-10T09:13:52.782Z,13.68
2019-04-10T09:16:21.087Z,13.84
2019-04-10T09:18:49.517Z,14.10
2019-04-10T09:21:17.641Z,14.10
2019-04-10T09:23:52.317Z,13.79
2019-04-10T09:26:15.811Z,13.17
2019-04-10T09:28:44.089Z,13.96
2019-04-10T09:31:13.476Z,12.23
2019-04-10T09:33:41.702Z,14.52
2019-04-10T09:36:10.947Z,14.89
2019-04-10T09:38:39.345Z,14.89
2019-04-10T09:41:07.783Z,15.11
2019-04-10T09:43:36.149Z,14.28
2019-04-10T09:46:04.429Z,14.07
2019-04-10T09:48:33.691Z,15.23
2019-04-10T09:51:01.935Z,15.74
2019-04-10T09:53:30.113Z,15.44
2019-04-10T09:55:58.454Z,15.96
2019-04-10T09:58:26.648Z,15.86
2019-04-10T10:00:54.915Z,16.37
2019-04-10T10:03:24.123Z,16.68
2019-04-10T10:05:53.085Z,16.65
2019-04-10T10:08:21.185Z,15.46
2019-04-10T10:10:49.402Z,15.38
2019-04-10T10:13:17.607Z,15.13
2019-04-10T10:15:45.780Z,16.80
2019-04-10T10:18:14.101Z,17.51
2019-04-10T10:20:42.471Z,16.99
2019-04-10T10:23:11.782Z,17.54
2019-04-10T10:25:40.035Z,18.12
2019-04-10T10:28:09.103Z,18.12
2019-04-10T10:30:37.716Z,17.95
2019-04-10T10:33:06.165Z,17.61
2019-04-10T10:35:35.481Z,18.54
2019-04-10T10:38:04.370Z,19.14
2019-04-10T10:40:33.953Z,18.71
2019-04-10T10:43:02.495Z,19.19
2019-04-10T10:45:31.134Z,18.21
2019-04-10T10:47:59.405Z,17.97
2019-04-10T10:50:27.584Z,18.47
2019-04-10T10:52:55.838Z,18.58
2019-04-10T10:55:24.042Z,17.29
2019-04-10T10:57:52.294Z,17.65
2019-04-10T11:00:23.115Z,18.74
2019-04-10T11:02:51.890Z,18.36
2019-04-10T11:05:21.147Z,16.63
2019-04-10T11:07:49.415Z,18.46
2019-04-10T11:10:22.851Z,18.77
2019-04-10T11:12:48.342Z,18.64
2019-04-10T11:15:16.633Z,18.11
2019-04-10T11:17:44.791Z,17.06
2019-04-10T11:20:15.184Z,17.77
2019-04-10T11:22:43.457Z,18.23
2019-04-10T11:25:12.215Z,18.47
2019-04-10T11:27:41.996Z,18.01
2019-04-10T11:30:12.526Z,17.54
2019-04-10T11:32:42.189Z,18.06
2019-04-10T11:35:11.174Z,17.54
2019-04-10T11:37:44.398Z,17.95
2019-04-10T11:40:09.807Z,16.44
2019-04-10T11:42:40.183Z,17.83
2019-04-10T11:45:10.193Z,18.38
2019-04-10T11:47:37.492Z,16.80
2019-04-10T11:50:09.408Z,17.45
2019-04-10T11:52:42.500Z,15.58
2019-04-10T11:55:13.744Z,14.98
2019-04-10T11:57:37.312Z,15.14
2019-04-10T12:00:12.239Z,15.38
2019-04-10T12:02:39.432Z,16.12
2019-04-10T12:05:12.025Z,13.40
2019-04-10T12:08:04.110Z,15.75
2019-04-10T12:12:37.597Z,13.97
2019-04-10T12:15:07.945Z,17.70
2019-04-10T12:17:36.435Z,16.34
2019-04-10T12:20:06.958Z,17.72
2019-04-10T12:22:35.872Z,17.46
2019-04-10T12:25:04.841Z,17.72
2019-04-10T12:27:33.523Z,18.43
2019-04-10T12:30:02.895Z,18.62
2019-04-10T12:32:31.254Z,18.41
2019-04-10T12:35:00.327Z,18.96
2019-04-10T12:37:28.707Z,19.02
2019-04-10T12:39:57.157Z,18.06
2019-04-10T12:42:25.511Z,16.86
2019-04-10T12:44:53.638Z,18.00
2019-04-10T12:47:21.838Z,17.58
2019-04-10T12:49:49.978Z,18.92
2019-04-10T12:52:18.511Z,20.01
2019-04-10T12:54:47.056Z,18.78
2019-04-10T12:57:15.276Z,18.66
2019-04-10T12:59:43.722Z,19.07
2019-04-10T13:02:13.126Z,14.61
2019-04-10T13:04:42.885Z,18.56
2019-04-10T13:07:11.665Z,19.76
2019-04-10T13:09:40.216Z,13.90
2019-04-10T13:12:09.033Z,16.13
2019-04-10T13:14:37.359Z,16.73
2019-04-10T13:17:06.725Z,16.53
2019-04-10T13:19:35.717Z,18.07
2019-04-10T13:22:04.128Z,16.23
2019-04-10T13:24:33.369Z,16.93
2019-04-10T13:27:01.950Z,20.43
2019-04-10T13:29:30.140Z,20.05
2019-04-10T13:31:59.299Z,18.29
2019-04-10T13:34:27.577Z,18.92
2019-04-10T13:36:55.800Z,20.48
2019-04-10T13:39:24.617Z,21.36
2019-04-10T13:41:52.779Z,21.95
2019-04-10T13:44:20.928Z,21.55
2019-04-10T13:46:49.151Z,22.04
2019-04-10T13:49:17.781Z,22.02
2019-04-10T13:51:47.694Z,21.67
2019-04-10T13:54:16.070Z,22.70
2019-04-10T13:56:45.402Z,19.83
2019-04-10T13:59:15.036Z,22.69
2019-04-10T14:01:43.937Z,22.87
2019-04-10T14:04:12.284Z,23.05
2019-04-10T14:06:41.372Z,22.64
2019-04-10T14:09:30.126Z,23.22
2019-04-10T14:11:47.215Z,22.82
2019-04-10T14:14:16.199Z,22.40
2019-04-10T14:16:44.722Z,23.00
2019-04-10T14:19:15.058Z,23.00
2019-04-10T14:21:43.333Z,22.29
2019-04-10T14:24:11.957Z,22.34
2019-04-10T14:27:08.427Z,22.63
2019-04-10T14:29:36.631Z,22.59
2019-04-10T14:32:09.130Z,21.81
2019-04-10T14:34:38.683Z,22.26
2019-04-10T14:37:11.516Z,20.44
2019-04-10T14:39:40.803Z,21.65
2019-04-10T14:42:10.285Z,21.59
2019-04-10T14:44:38.939Z,20.27
2019-04-10T14:47:07.223Z,19.98
2019-04-10T14:49:37.566Z,18.67
2019-04-10T14:52:05.803Z,20.26
2019-04-10T14:54:33.983Z,21.12
2019-04-10T14:57:02.461Z,21.44
2019-04-10T14:59:31.786Z,21.29
2019-04-10T15:02:00.162Z,20.42
2019-04-10T15:04:28.906Z,20.25
2019-04-10T15:06:57.586Z,20.24
2019-04-10T15:09:26.300Z,18.76
2019-04-10T15:11:55.294Z,20.65
2019-04-10T15:14:23.831Z,20.51
2019-04-10T15:16:55.488Z,20.55
2019-04-10T15:19:22.617Z,20.69
2019-04-10T15:21:52.288Z,20.49
2019-04-10T15:24:21.634Z,20.87
2019-04-10T15:26:50.900Z,20.80
2019-04-10T15:29:20.432Z,20.63
2019-04-10T15:31:50.159Z,20.79
2019-04-10T15:34:18.502Z,20.67
2019-04-10T15:36:48.042Z,20.35
2019-04-10T15:39:16.817Z,20.45
2019-04-10T15:41:45.580Z,19.06
2019-04-10T15:44:14.095Z,19.64
2019-04-10T15:46:43.546Z,20.28
2019-04-10T15:49:11.788Z,19.98
2019-04-10T15:51:41.275Z,19.40
2019-04-10T15:54:09.762Z,19.70
2019-04-10T15:56:38.183Z,20.00
2019-04-10T15:59:06.321Z,19.94
2019-04-10T16:01:35.149Z,18.72
2019-04-10T16:04:03.494Z,19.18
2019-04-10T16:06:31.628Z,18.70
2019-04-10T16:09:00.918Z,18.94
2019-04-10T16:11:54.381Z,18.86
2019-04-10T16:14:26.213Z,18.49
2019-04-10T16:17:17.949Z,18.15
2019-04-10T16:19:56.381Z,18.99
2019-04-10T16:22:35.993Z,18.15
2019-04-10T16:25:07.396Z,18.32
2019-04-10T16:27:35.602Z,18.97
2019-04-10T16:30:06.026Z,17.28
2019-04-10T16:32:34.935Z,16.34
2019-04-10T16:35:03.245Z,18.28
2019-04-10T16:37:31.405Z,17.03
2019-04-10T16:40:03.978Z,16.94
2019-04-10T16:42:30.745Z,17.19
2019-04-10T16:44:59.734Z,17.31
2019-04-10T16:47:28.271Z,17.81
2019-04-10T16:49:57.215Z,17.76
2019-04-10T16:52:25.679Z,17.39
2019-04-10T16:54:53.983Z,17.28
2019-04-10T16:57:22.677Z,16.81
2019-04-10T16:59:51.035Z,17.05
2019-04-10T17:02:20.067Z,16.84
2019-04-10T17:04:48.250Z,16.22
2019-04-10T17:07:16.953Z,15.92
2019-04-10T17:09:45.453Z,15.28
2019-04-10T17:12:13.753Z,15.73
2019-04-10T17:14:42.071Z,15.79
2019-04-10T17:17:10.415Z,15.01
2019-04-10T17:19:48.780Z,15.39
2019-04-10T17:22:08.950Z,14.95
2019-04-10T17:24:37.601Z,14.94
2019-04-10T17:27:06.422Z,14.68
2019-04-10T17:29:35.083Z,14.00
2019-04-10T17:32:03.238Z,14.59
2019-04-10T17:34:32.597Z,14.32
2019-04-10T17:37:01.225Z,14.36
2019-04-10T17:39:29.461Z,14.26
2019-04-10T17:41:57.894Z,13.56
2019-04-10T17:44:26.099Z,13.80
2019-04-10T17:46:55.630Z,13.69
2019-04-10T17:49:23.981Z,13.00
2019-04-10T17:51:52.616Z,13.04
2019-04-10T17:54:20.978Z,12.91
2019-04-10T17:56:49.141Z,12.75
2019-04-10T17:59:18.366Z,12.80
2019-04-10T18:01:47.239Z,12.63
2019-04-10T18:04:16.019Z,12.28
2019-04-10T18:06:45.955Z,12.28
2019-04-10T18:09:14.249Z,12.14
2019-04-10T18:11:43.489Z,12.02
2019-04-10T18:14:11.774Z,11.88
2019-04-10T18:16:40.175Z,11.76
2019-04-10T18:19:08.522Z,11.54
2019-04-10T18:21:37.106Z,11.42
2019-04-10T18:24:06.235Z,11.25
2019-04-10T18:26:34.553Z,11.07
2019-04-10T18:29:02.758Z,10.93
2019-04-10T18:31:30.997Z,10.80
2019-04-10T18:33:59.376Z,10.61
2019-04-10T18:36:27.823Z,10.49
2019-04-10T18:38:55.975Z,10.37
2019-04-10T18:41:24.261Z,10.15
2019-04-10T18:43:52.876Z,10.12
2019-04-10T18:46:22.411Z,10.00
2019-04-10T18:48:51.389Z,9.88
2019-04-10T18:51:19.683Z,9.65
2019-04-10T18:53:47.841Z,9.54
2019-04-10T18:56:16.682Z,9.45
2019-04-10T18:58:56.274Z,9.08
2019-04-10T19:01:47.374Z,8.91
2019-04-10T19:04:34.852Z,8.90
2019-04-10T19:07:04.859Z,8.85
2019-04-10T19:09:36.811Z,8.74
2019-04-10T19:12:05.329Z,8.65
2019-04-10T19:14:36.637Z,8.53
2019-04-10T19:17:03.771Z,8.35
2019-04-10T19:19:32.497Z,8.21
2019-04-10T19:22:01.965Z,8.11
2019-04-10T19:24:30.637Z,7.89
2019-04-10T19:27:00.010Z,7.87
2019-04-10T19:29:29.585Z,7.81
2019-04-10T19:32:01.876Z,7.57
2019-04-10T19:34:30.328Z,7.52
2019-04-10T19:36:58.830Z,7.44
2019-04-10T19:39:27.059Z,7.36
2019-04-10T19:41:55.709Z,7.04
2019-04-10T19:44:24.026Z,6.92
2019-04-10T19:46:52.206Z,6.81
2019-04-10T19:49:20.370Z,6.35
2019-04-10T19:51:48.790Z,6.72
2019-04-10T19:54:17.802Z,6.57
2019-04-10T19:56:46.087Z,6.53
2019-04-10T19:59:14.557Z,6.48
2019-04-10T20:01:42.826Z,6.44
2019-04-10T20:04:10.962Z,6.24
2019-04-10T20:06:39.190Z,6.16
2019-04-10T20:09:10.374Z,6.19
2019-04-10T20:11:43.381Z,6.05
2019-04-10T20:14:08.906Z,5.94
2019-04-10T20:16:37.497Z,5.86
2019-04-10T20:19:05.932Z,5.76
2019-04-10T20:21:34.300Z,5.67
2019-04-10T20:24:02.774Z,5.57
2019-04-10T20:26:31.478Z,5.47
2019-04-10T20:29:00.138Z,5.31
2019-04-10T20:34:21.583Z,5.12
2019-04-10T20:36:49.734Z,5.14
2019-04-10T20:39:18.020Z,4.96
2019-04-10T20:41:51.880Z,4.73
2019-04-10T20:44:16.577Z,4.75
2019-04-10T20:46:46.561Z,4.85
2019-04-10T20:49:14.810Z,4.77
2019-04-10T20:51:43.990Z,4.54
2019-04-10T20:54:12.738Z,3.63
2019-04-10T20:56:41.275Z,4.48
2019-04-10T20:59:09.987Z,4.45
2019-04-10T21:01:39.276Z,4.43
2019-04-10T21:04:07.637Z,4.33
2019-04-10T21:06:36.992Z,4.21
2019-04-10T21:09:07.870Z,4.18
2019-04-10T21:11:36.021Z,4.07
2019-04-10T21:14:05.188Z,4.03
2019-04-10T21:16:35.681Z,3.99
2019-04-10T21:19:04.546Z,3.86
2019-04-10T21:21:34.878Z,3.88
2019-04-10T21:24:04.871Z,3.81
2019-04-10T21:26:34.660Z,3.63
2019-04-10T21:29:05.153Z,3.59
2019-04-10T21:31:48.331Z,3.64
2019-04-10T21:34:20.346Z,3.48
2019-04-10T21:36:48.993Z,2.77
2019-04-10T21:39:17.231Z,2.87
2019-04-10T21:41:46.528Z,3.13
2019-04-10T21:44:16.091Z,3.17
2019-04-10T21:46:45.264Z,2.77
2019-04-10T21:49:13.513Z,2.92
2019-04-10T21:51:42.774Z,3.06
2019-04-10T21:54:11.878Z,2.72
2019-04-10T21:56:40.925Z,2.75
2019-04-10T21:59:11.093Z,2.70
2019-04-10T22:01:40.293Z,2.78
2019-04-10T22:04:08.697Z,2.79
2019-04-10T22:06:56.039Z,2.68
2019-04-10T22:10:08.023Z,2.61
2019-04-10T22:12:42.171Z,2.50
2019-04-10T22:15:15.541Z,2.27
2019-04-10T22:17:44.595Z,2.36
2019-04-10T22:20:14.946Z,2.30
2019-04-10T22:22:43.375Z,2.45
2019-04-10T22:25:11.589Z,2.52
2019-04-10T22:27:39.789Z,2.46
2019-04-10T22:30:08.558Z,2.21
2019-04-10T22:32:36.733Z,2.33
2019-04-10T22:35:25.811Z,2.36
2019-04-10T22:37:55.408Z,2.35
2019-04-10T22:40:23.719Z,2.24
2019-04-10T22:42:51.939Z,2.24
2019-04-10T22:45:40.835Z,2.15
2019-04-10T22:48:09.314Z,2.13
2019-04-10T22:50:38.554Z,2.11
2019-04-10T22:53:07.404Z,1.98
2019-04-10T22:55:35.788Z,1.00
2019-04-10T22:58:04.509Z,1.50
2019-04-10T23:00:33.918Z,1.85
2019-04-10T23:03:03.150Z,1.43
2019-04-10T23:05:32.292Z,0.90
2019-04-10T23:08:01.145Z,1.32
2019-04-10T23:10:29.457Z,1.63
2019-04-10T23:13:01.681Z,0.19
2019-04-10T23:15:27.497Z,1.65
2019-04-10T23:17:55.675Z,1.66
2019-04-10T23:20:23.851Z,1.74
2019-04-10T23:22:52.593Z,1.49
2019-04-10T23:25:22.459Z,1.01
2019-04-10T23:27:54.404Z,1.23
2019-04-10T23:30:21.547Z,1.11
2019-04-10T23:32:49.712Z,1.42
2019-04-10T23:35:18.811Z,1.31
2019-04-10T23:37:47.819Z,1.16
2019-04-10T23:40:16.865Z,1.36
2019-04-10T23:42:46.251Z,1.34
2019-04-10T23:45:15.546Z,1.31
2019-04-10T23:47:44.568Z,1.11
2019-04-10T23:50:12.731Z,0.74
2019-04-10T23:52:41.180Z,0.58
2019-04-10T23:55:10.900Z,1.06
2019-04-10T23:57:39.134Z,0.93
